createdAt,value
2023-03-29T00:02:01.336Z,94.74
2023-03-29T00:04:28.421Z,94.97
2023-03-29T00:06:55.547Z,94.47
2023-03-29T00:09:22.775Z,94.60
2023-03-29T00:11:49.646Z,94.96
2023-03-29T00:14:16.369Z,95.27
2023-03-29T00:16:45.177Z,95.04
2023-03-29T00:19:12.056Z,95.26
2023-03-29T00:21:38.792Z,95.30
2023-03-29T00:24:05.781Z,95.29
2023-03-29T00:26:32.584Z,95.55
2023-03-29T00:28:59.393Z,95.56
2023-03-29T00:31:26.705Z,95.80
2023-03-29T00:33:53.536Z,96.47
2023-03-29T00:36:22.428Z,96.83
2023-03-29T00:38:49.326Z,96.77
2023-03-29T00:41:16.241Z,96.49
2023-03-29T00:44:12.467Z,96.84
2023-03-29T00:46:39.367Z,97.25
2023-03-29T00:49:10.013Z,97.82
2023-03-29T00:51:38.632Z,97.58
2023-03-29T00:54:10.996Z,98.42
2023-03-29T00:56:40.237Z,98.38
2023-03-29T00:59:13.997Z,99.15
2023-03-29T01:01:46.117Z,99.31
2023-03-29T01:04:19.693Z,99.17
2023-03-29T01:07:07.619Z,99.49
2023-03-29T01:09:37.750Z,99.61
2023-03-29T01:12:08.626Z,99.80
2023-03-29T01:14:39.794Z,99.35
2023-03-29T01:17:07.279Z,99.55
2023-03-29T01:19:37.772Z,99.16
2023-03-29T01:22:31.057Z,99.51
2023-03-29T01:25:03.696Z,99.58
2023-03-29T01:27:36.415Z,99.92
2023-03-29T01:30:05.928Z,99.90
2023-03-29T01:32:37.944Z,99.68
2023-03-29T01:35:11.043Z,99.77
2023-03-29T01:37:46.040Z,100.00
2023-03-29T01:40:12.872Z,100.00
2023-03-29T01:42:46.958Z,100.00
2023-03-29T01:45:20.231Z,100.00
2023-03-29T01:48:01.455Z,99.92
2023-03-29T01:50:37.234Z,99.61
2023-03-29T01:53:06.871Z,99.46
2023-03-29T01:55:38.923Z,99.53
2023-03-29T01:58:07.621Z,99.48
2023-03-29T02:00:36.606Z,99.94
2023-03-29T02:03:06.652Z,99.97
2023-03-29T02:05:34.009Z,100.00
2023-03-29T02:08:01.837Z,99.98
2023-03-29T02:10:29.074Z,100.00
2023-03-29T02:12:56.342Z,100.00
2023-03-29T02:15:23.781Z,99.97
2023-03-29T02:17:51.331Z,99.98
2023-03-29T02:20:24.417Z,100.00
2023-03-29T02:23:14.629Z,100.00
2023-03-29T02:25:42.613Z,100.00
2023-03-29T02:28:09.784Z,100.00
2023-03-29T02:30:48.692Z,100.00
2023-03-29T02:33:18.376Z,100.00
2023-03-29T02:35:48.955Z,100.00
2023-03-29T02:38:17.484Z,100.00
2023-03-29T02:40:44.422Z,100.00
2023-03-29T02:43:12.587Z,99.90
2023-03-29T02:45:40.198Z,100.00
2023-03-29T02:48:09.410Z,99.99
2023-03-29T02:50:38.050Z,99.83
2023-03-29T02:53:07.766Z,99.78
2023-03-29T02:55:36.643Z,100.00
2023-03-29T02:58:08.420Z,100.00
2023-03-29T03:00:41.151Z,100.00
2023-03-29T03:03:08.576Z,100.00
2023-03-29T03:05:36.418Z,100.00
2023-03-29T03:08:03.151Z,100.00
2023-03-29T03:10:29.898Z,100.00
2023-03-29T03:12:56.770Z,100.00
2023-03-29T03:15:23.522Z,100.00
2023-03-29T03:17:50.338Z,100.00
2023-03-29T03:20:17.173Z,100.00
2023-03-29T03:22:45.928Z,100.00
2023-03-29T03:25:13.511Z,100.00
2023-03-29T03:27:40.306Z,100.00
2023-03-29T03:30:07.409Z,99.95
2023-03-29T03:32:34.555Z,100.00
2023-03-29T03:35:01.434Z,100.00
2023-03-29T03:37:28.677Z,100.00
2023-03-29T03:39:55.589Z,100.00
2023-03-29T03:42:22.439Z,100.00
2023-03-29T03:44:49.885Z,100.00
2023-03-29T03:47:16.628Z,99.80
2023-03-29T03:49:43.729Z,100.00
2023-03-29T03:52:10.506Z,99.77
2023-03-29T03:54:37.229Z,99.95
2023-03-29T03:57:04.477Z,100.00
2023-03-29T03:59:31.251Z,100.00
2023-03-29T04:01:58.622Z,100.00
2023-03-29T04:04:25.778Z,100.00
2023-03-29T04:06:53.137Z,100.00
2023-03-29T04:09:20.440Z,100.00
2023-03-29T04:11:47.243Z,100.00
2023-03-29T04:14:14.115Z,100.00
2023-03-29T04:16:41.051Z,100.00
2023-03-29T04:19:07.797Z,100.00
2023-03-29T04:21:34.768Z,100.00
2023-03-29T04:24:01.455Z,100.00
2023-03-29T04:26:28.252Z,99.88
2023-03-29T04:28:55.022Z,100.00
2023-03-29T04:31:21.869Z,100.00
2023-03-29T04:33:50.237Z,100.00
2023-03-29T04:36:17.145Z,100.00
2023-03-29T04:38:47.340Z,99.92
2023-03-29T04:41:15.593Z,100.00
2023-03-29T04:43:46.860Z,100.00
2023-03-29T04:46:14.512Z,99.87
2023-03-29T04:48:42.204Z,99.67
2023-03-29T04:51:08.952Z,99.91
2023-03-29T04:53:35.691Z,100.00
2023-03-29T04:56:03.450Z,99.79
2023-03-29T04:58:32.184Z,99.80
2023-03-29T05:00:59.546Z,99.80
2023-03-29T05:03:27.407Z,99.62
2023-03-29T05:05:54.193Z,99.69
2023-03-29T05:08:20.955Z,99.97
2023-03-29T05:10:50.090Z,100.00
2023-03-29T05:13:17.123Z,100.00
2023-03-29T05:15:43.884Z,99.34
2023-03-29T05:18:11.105Z,99.41
2023-03-29T05:20:38.527Z,99.10
2023-03-29T05:23:05.258Z,99.65
2023-03-29T05:25:32.097Z,99.47
2023-03-29T05:27:59.112Z,99.30
2023-03-29T05:30:25.974Z,98.96
2023-03-29T05:32:53.232Z,98.71
2023-03-29T05:35:20.371Z,98.66
2023-03-29T05:37:47.633Z,99.40
2023-03-29T05:40:14.456Z,99.60
2023-03-29T05:42:41.261Z,99.56
2023-03-29T05:45:08.435Z,99.33
2023-03-29T05:47:35.343Z,99.15
2023-03-29T05:50:02.429Z,99.52
2023-03-29T05:52:29.195Z,99.39
2023-03-29T05:54:56.994Z,99.29
2023-03-29T05:57:23.859Z,99.38
2023-03-29T05:59:50.701Z,99.74
2023-03-29T06:02:17.656Z,98.98
2023-03-29T06:04:45.040Z,99.15
2023-03-29T06:07:12.829Z,99.00
2023-03-29T06:09:40.093Z,98.88
2023-03-29T06:12:07.514Z,98.57
2023-03-29T06:14:34.397Z,98.30
2023-03-29T06:17:01.979Z,98.04
2023-03-29T06:19:29.549Z,98.30
2023-03-29T06:21:56.456Z,98.13
2023-03-29T06:24:33.290Z,98.17
2023-03-29T06:27:00.244Z,97.75
2023-03-29T06:29:27.040Z,97.91
2023-03-29T06:31:54.311Z,97.75
2023-03-29T06:34:22.043Z,97.65
2023-03-29T06:36:51.255Z,97.31
2023-03-29T06:39:18.292Z,97.02
2023-03-29T06:41:45.100Z,97.14
2023-03-29T06:44:12.002Z,96.44
2023-03-29T06:46:38.815Z,96.31
2023-03-29T06:49:05.673Z,96.67
2023-03-29T06:51:32.792Z,96.64
2023-03-29T06:53:59.666Z,96.96
2023-03-29T06:56:26.531Z,97.34
2023-03-29T06:58:54.052Z,97.06
2023-03-29T07:01:22.009Z,96.69
2023-03-29T07:03:50.585Z,97.06
2023-03-29T07:06:23.688Z,97.17
2023-03-29T07:08:52.689Z,96.71
2023-03-29T07:11:20.659Z,96.61
2023-03-29T07:13:49.373Z,96.52
2023-03-29T07:16:16.815Z,96.38
2023-03-29T07:18:47.354Z,96.28
2023-03-29T07:21:14.176Z,96.10
2023-03-29T07:23:41.195Z,96.12
2023-03-29T07:26:08.458Z,96.01
2023-03-29T07:28:35.821Z,96.15
2023-03-29T07:31:07.034Z,96.01
2023-03-29T07:33:34.731Z,96.02
2023-03-29T07:36:02.309Z,96.19
2023-03-29T07:38:29.315Z,96.80
2023-03-29T07:40:56.547Z,95.96
2023-03-29T07:43:24.424Z,95.64
2023-03-29T07:46:00.891Z,95.45
2023-03-29T07:48:27.703Z,94.99
2023-03-29T07:50:54.556Z,95.12
2023-03-29T07:53:21.445Z,95.06
2023-03-29T07:55:49.480Z,94.98
2023-03-29T07:58:16.773Z,95.30
2023-03-29T08:00:44.016Z,94.89
2023-03-29T08:03:12.735Z,94.89
2023-03-29T08:05:41.732Z,94.82
2023-03-29T08:08:09.980Z,94.30
2023-03-29T08:10:38.059Z,94.51
2023-03-29T08:13:09.460Z,94.60
2023-03-29T08:15:39.383Z,94.37
2023-03-29T08:18:07.157Z,94.57
2023-03-29T08:20:35.205Z,94.29
2023-03-29T08:23:02.121Z,93.98
2023-03-29T08:25:28.942Z,94.40
2023-03-29T08:27:55.854Z,94.65
2023-03-29T08:30:22.641Z,94.73
2023-03-29T08:32:52.929Z,94.76
2023-03-29T08:35:21.600Z,94.93
2023-03-29T08:37:48.293Z,94.69
2023-03-29T08:40:23.531Z,94.71
2023-03-29T08:43:09.086Z,95.42
2023-03-29T08:45:37.296Z,95.49
2023-03-29T08:48:24.371Z,95.43
2023-03-29T08:50:53.373Z,95.50
2023-03-29T08:53:23.063Z,95.94
2023-03-29T08:55:52.189Z,95.81
2023-03-29T08:58:21.157Z,96.57
2023-03-29T09:00:49.907Z,96.67
2023-03-29T09:03:22.581Z,96.91
2023-03-29T09:06:10.690Z,97.43
2023-03-29T09:08:48.304Z,97.49
2023-03-29T09:11:24.361Z,97.70
2023-03-29T09:14:20.467Z,97.74
2023-03-29T09:16:53.390Z,98.41
2023-03-29T09:19:40.746Z,98.47
2023-03-29T09:22:23.037Z,98.33
2023-03-29T09:25:05.322Z,98.14
2023-03-29T09:27:39.646Z,98.29
2023-03-29T09:30:26.124Z,98.38
2023-03-29T09:32:54.396Z,98.43
2023-03-29T09:35:27.867Z,98.58
2023-03-29T09:37:55.203Z,98.85
2023-03-29T09:40:24.968Z,98.63
2023-03-29T09:42:53.007Z,98.69
2023-03-29T09:45:19.882Z,98.71
2023-03-29T09:47:58.653Z,98.91
2023-03-29T09:50:35.636Z,99.03
2023-03-29T09:53:02.574Z,98.67
2023-03-29T09:55:31.403Z,98.72
2023-03-29T09:58:00.951Z,98.73
2023-03-29T10:00:28.069Z,98.69
2023-03-29T10:02:57.405Z,99.04
2023-03-29T10:05:25.921Z,98.95
2023-03-29T10:07:54.625Z,98.84
2023-03-29T10:10:23.369Z,98.78
2023-03-29T10:12:51.277Z,98.49
2023-03-29T10:15:29.291Z,98.75
2023-03-29T10:18:01.871Z,98.62
2023-03-29T10:20:28.908Z,98.74
2023-03-29T10:22:57.023Z,98.63
2023-03-29T10:25:43.256Z,98.78
2023-03-29T10:31:33.869Z,98.53
2023-03-29T10:34:05.605Z,98.50
2023-03-29T10:36:34.135Z,98.20
2023-03-29T10:39:05.777Z,98.50
2023-03-29T10:41:34.502Z,98.56
2023-03-29T10:44:02.860Z,98.04
2023-03-29T10:46:31.191Z,98.22
2023-03-29T10:49:11.038Z,98.18
2023-03-29T10:51:49.521Z,98.17
2023-03-29T10:54:30.285Z,98.66
2023-03-29T10:57:23.915Z,98.88
2023-03-29T11:00:00.281Z,99.11
2023-03-29T11:02:50.345Z,99.20
2023-03-29T11:05:26.363Z,99.52
2023-03-29T11:07:53.087Z,99.67
2023-03-29T11:10:38.855Z,99.71
2023-03-29T11:13:06.141Z,99.97
2023-03-29T11:15:39.031Z,100.00
2023-03-29T11:18:05.988Z,100.00
2023-03-29T11:20:51.768Z,100.00
2023-03-29T11:23:31.191Z,100.00
2023-03-29T11:25:58.544Z,100.00
2023-03-29T11:28:37.451Z,100.00
2023-03-29T11:31:10.314Z,100.00
2023-03-29T11:33:55.562Z,100.00
2023-03-29T11:36:25.325Z,100.00
2023-03-29T11:39:04.811Z,100.00
2023-03-29T11:41:35.287Z,100.00
2023-03-29T11:44:10.302Z,100.00
2023-03-29T11:46:40.458Z,100.00
2023-03-29T11:49:07.281Z,100.00
2023-03-29T11:51:38.217Z,100.00
2023-03-29T11:54:20.928Z,100.00
2023-03-29T11:56:55.204Z,100.00
2023-03-29T11:59:27.492Z,100.00
2023-03-29T12:02:03.146Z,100.00
2023-03-29T12:04:44.541Z,100.00
2023-03-29T12:07:17.668Z,100.00
2023-03-29T12:09:56.527Z,100.00
2023-03-29T12:12:27.430Z,99.78
2023-03-29T12:15:11.142Z,99.37
2023-03-29T12:17:42.307Z,99.24
2023-03-29T12:20:29.741Z,98.79
2023-03-29T12:22:59.619Z,98.24
2023-03-29T12:25:33.954Z,97.70
2023-03-29T12:28:19.740Z,96.71
2023-03-29T12:30:55.869Z,96.32
2023-03-29T12:33:22.871Z,96.04
2023-03-29T12:35:59.314Z,95.77
2023-03-29T12:38:30.578Z,95.26
2023-03-29T12:41:02.338Z,95.33
2023-03-29T12:43:43.749Z,94.79
2023-03-29T12:46:15.118Z,94.07
2023-03-29T12:48:42.913Z,92.80
2023-03-29T12:51:14.142Z,91.01
2023-03-29T12:53:42.687Z,90.71
2023-03-29T12:56:14.692Z,89.97
2023-03-29T12:58:53.186Z,88.94
2023-03-29T13:01:31.660Z,88.24
2023-03-29T13:04:01.626Z,87.59
2023-03-29T13:06:30.990Z,87.50
2023-03-29T13:08:59.708Z,87.88
2023-03-29T13:11:29.519Z,87.61
2023-03-29T13:13:57.767Z,87.84
2023-03-29T13:16:35.073Z,87.69
2023-03-29T13:19:11.112Z,88.32
2023-03-29T13:21:38.086Z,87.53
2023-03-29T13:24:05.868Z,87.17
2023-03-29T13:26:44.792Z,87.09
2023-03-29T13:29:17.554Z,86.70
2023-03-29T13:31:52.561Z,86.90
2023-03-29T13:34:39.689Z,86.80
2023-03-29T13:37:18.671Z,86.79
2023-03-29T13:39:51.366Z,87.41
2023-03-29T13:42:21.895Z,86.71
2023-03-29T13:44:51.551Z,86.85
2023-03-29T13:47:21.533Z,86.49
2023-03-29T13:49:56.692Z,86.63
2023-03-29T13:52:39.825Z,86.89
2023-03-29T13:55:12.688Z,87.01
2023-03-29T13:57:42.707Z,87.04
2023-03-29T14:00:18.219Z,86.43
2023-03-29T14:02:51.936Z,86.30
2023-03-29T14:05:22.108Z,86.12
2023-03-29T14:07:53.417Z,85.63
2023-03-29T14:10:34.858Z,86.21
2023-03-29T14:13:04.371Z,85.62
2023-03-29T14:15:43.863Z,85.46
2023-03-29T14:18:12.342Z,85.37
2023-03-29T14:20:43.402Z,85.32
2023-03-29T14:23:17.996Z,85.51
2023-03-29T14:25:44.793Z,85.89
2023-03-29T14:28:24.971Z,85.51
2023-03-29T14:30:52.988Z,86.01
2023-03-29T14:33:30.055Z,84.99
2023-03-29T14:35:58.642Z,84.96
2023-03-29T14:38:26.512Z,84.59
2023-03-29T14:40:55.240Z,84.42
2023-03-29T14:43:27.685Z,84.25
2023-03-29T14:45:54.723Z,83.95
2023-03-29T14:48:22.505Z,83.38
2023-03-29T14:50:50.041Z,83.20
2023-03-29T14:53:19.217Z,83.68
2023-03-29T14:55:48.409Z,82.86
2023-03-29T14:58:22.814Z,82.76
2023-03-29T15:00:53.181Z,82.97
2023-03-29T15:03:22.966Z,82.28
2023-03-29T15:05:52.228Z,82.60
2023-03-29T15:08:23.855Z,82.50
2023-03-29T15:10:51.098Z,82.67
2023-03-29T15:13:24.724Z,82.84
2023-03-29T15:16:00.341Z,81.73
2023-03-29T15:18:30.377Z,81.77
2023-03-29T15:20:57.491Z,81.74
2023-03-29T15:23:25.361Z,80.93
2023-03-29T15:26:09.933Z,79.80
2023-03-29T15:28:50.266Z,79.27
2023-03-29T15:31:19.299Z,78.36
2023-03-29T15:33:46.401Z,78.44
2023-03-29T15:36:14.333Z,78.14
2023-03-29T15:38:44.641Z,78.84
2023-03-29T15:41:12.572Z,79.07
2023-03-29T15:43:39.477Z,78.54
2023-03-29T15:46:06.544Z,78.50
2023-03-29T15:48:34.031Z,78.98
2023-03-29T15:51:05.484Z,79.07
2023-03-29T15:53:33.452Z,78.99
2023-03-29T15:56:02.119Z,79.52
2023-03-29T15:58:33.124Z,79.31
2023-03-29T16:01:34.361Z,79.36
2023-03-29T16:04:10.938Z,79.46
2023-03-29T16:06:38.017Z,79.73
2023-03-29T16:09:07.258Z,80.13
2023-03-29T16:11:34.476Z,80.65
2023-03-29T16:14:01.456Z,80.80
2023-03-29T16:16:28.332Z,80.42
2023-03-29T16:18:55.072Z,80.36
2023-03-29T16:21:22.988Z,80.21
2023-03-29T16:23:49.813Z,80.67
2023-03-29T16:26:17.356Z,81.07
2023-03-29T16:28:44.167Z,81.03
2023-03-29T16:31:12.091Z,80.87
2023-03-29T16:33:42.005Z,80.75
2023-03-29T16:36:09.460Z,81.50
2023-03-29T16:38:36.772Z,81.30
2023-03-29T16:41:04.168Z,81.33
2023-03-29T16:43:32.016Z,82.02
2023-03-29T16:46:02.592Z,81.83
2023-03-29T16:48:29.761Z,82.11
2023-03-29T16:50:57.159Z,82.36
2023-03-29T16:53:24.184Z,82.66
2023-03-29T16:55:51.116Z,83.44
2023-03-29T16:58:17.928Z,83.11
2023-03-29T17:00:47.947Z,83.39
2023-03-29T17:03:15.683Z,83.31
2023-03-29T17:05:53.156Z,83.12
2023-03-29T17:08:20.964Z,83.27
2023-03-29T17:10:52.126Z,83.51
2023-03-29T17:13:19.104Z,83.76
2023-03-29T17:15:46.045Z,84.33
2023-03-29T17:18:14.159Z,83.77
2023-03-29T17:20:40.998Z,83.76
2023-03-29T17:23:09.125Z,83.53
2023-03-29T17:25:36.467Z,83.73
2023-03-29T17:28:03.813Z,83.72
2023-03-29T17:30:30.967Z,83.87
2023-03-29T17:32:58.462Z,83.83
2023-03-29T17:35:26.456Z,84.38
2023-03-29T17:37:55.041Z,84.36
2023-03-29T17:40:22.774Z,83.92
2023-03-29T17:42:50.547Z,84.23
2023-03-29T17:45:17.479Z,84.45
2023-03-29T17:47:44.317Z,85.24
2023-03-29T17:50:11.848Z,86.16
2023-03-29T17:52:41.937Z,86.87
2023-03-29T17:55:13.886Z,87.52
2023-03-29T17:57:41.528Z,87.87
2023-03-29T18:00:11.677Z,88.55
2023-03-29T18:02:40.921Z,89.15
2023-03-29T18:05:10.186Z,89.78
2023-03-29T18:07:37.158Z,90.31
2023-03-29T18:10:04.242Z,90.46
2023-03-29T18:12:31.885Z,91.41
2023-03-29T18:14:59.200Z,92.33
2023-03-29T18:17:27.753Z,93.19
2023-03-29T18:19:54.748Z,93.69
2023-03-29T18:22:21.977Z,94.31
2023-03-29T18:24:49.542Z,94.74
2023-03-29T18:27:16.731Z,95.15
2023-03-29T18:29:44.882Z,95.72
2023-03-29T18:32:11.908Z,97.07
2023-03-29T18:34:42.398Z,97.36
2023-03-29T18:37:14.761Z,97.65
2023-03-29T18:39:41.900Z,98.54
2023-03-29T18:42:10.823Z,98.69
2023-03-29T18:44:42.918Z,99.00
2023-03-29T18:47:09.895Z,99.27
2023-03-29T18:49:37.040Z,99.72
2023-03-29T18:52:05.072Z,100.00
2023-03-29T18:54:45.945Z,100.00
2023-03-29T18:57:12.759Z,100.00
2023-03-29T18:59:39.736Z,100.00
2023-03-29T19:02:06.536Z,100.00
2023-03-29T19:04:40.740Z,100.00
2023-03-29T19:07:09.217Z,100.00
2023-03-29T19:09:36.242Z,100.00
2023-03-29T19:12:03.169Z,100.00
2023-03-29T19:14:44.203Z,100.00
2023-03-29T19:17:11.016Z,100.00
2023-03-29T19:19:38.125Z,100.00
2023-03-29T19:22:04.856Z,100.00
2023-03-29T19:24:38.315Z,100.00
2023-03-29T19:27:05.244Z,100.00
2023-03-29T19:29:32.399Z,100.00
2023-03-29T19:31:59.167Z,100.00
2023-03-29T19:34:27.035Z,100.00
2023-03-29T19:36:55.443Z,100.00
2023-03-29T19:39:22.837Z,100.00
2023-03-29T19:41:49.626Z,100.00
2023-03-29T19:44:16.358Z,100.00
2023-03-29T19:46:43.392Z,100.00
2023-03-29T19:49:15.053Z,100.00
2023-03-29T19:51:42.385Z,100.00
2023-03-29T19:54:09.653Z,100.00
2023-03-29T19:56:36.385Z,100.00
2023-03-29T19:59:03.383Z,100.00
2023-03-29T20:01:32.606Z,100.00
2023-03-29T20:03:59.487Z,100.00
2023-03-29T20:06:26.397Z,100.00
2023-03-29T20:08:53.840Z,100.00
2023-03-29T20:11:24.141Z,100.00
2023-03-29T20:13:52.021Z,100.00
2023-03-29T20:16:19.395Z,100.00
2023-03-29T20:18:46.996Z,100.00
2023-03-29T20:21:17.094Z,100.00
2023-03-29T20:23:44.470Z,100.00
2023-03-29T20:26:11.596Z,100.00
2023-03-29T20:28:38.619Z,100.00
2023-03-29T20:31:07.757Z,100.00
2023-03-29T20:33:34.539Z,100.00
2023-03-29T20:36:02.229Z,100.00
2023-03-29T20:38:29.800Z,100.00
2023-03-29T20:40:56.671Z,100.00
2023-03-29T20:43:24.867Z,100.00
2023-03-29T20:45:54.259Z,100.00
2023-03-29T20:48:33.145Z,100.00
2023-03-29T20:51:03.498Z,100.00
2023-03-29T20:53:34.926Z,100.00
2023-03-29T20:56:01.746Z,100.00
2023-03-29T20:58:29.346Z,100.00
2023-03-29T21:00:59.709Z,100.00
2023-03-29T21:03:26.816Z,100.00
2023-03-29T21:05:54.531Z,100.00
2023-03-29T21:08:21.461Z,100.00
2023-03-29T21:10:48.224Z,100.00
2023-03-29T21:13:15.628Z,100.00
2023-03-29T21:15:43.780Z,100.00
2023-03-29T21:31:09.092Z,100.00
2023-03-29T21:33:36.192Z,100.00
2023-03-29T21:36:03.226Z,100.00
2023-03-29T21:38:30.170Z,100.00
2023-03-29T21:40:58.440Z,100.00
2023-03-29T21:43:25.888Z,100.00
2023-03-29T21:45:52.826Z,100.00
2023-03-29T21:48:19.939Z,100.00
2023-03-29T21:50:50.928Z,100.00
2023-03-29T21:53:18.629Z,100.00
2023-03-29T21:55:48.262Z,100.00
2023-03-29T21:58:15.332Z,100.00
2023-03-29T22:00:42.227Z,100.00
2023-03-29T22:03:09.320Z,100.00
2023-03-29T22:05:36.315Z,100.00
2023-03-29T22:08:04.481Z,100.00
2023-03-29T22:10:33.353Z,100.00
2023-03-29T22:13:01.337Z,100.00
2023-03-29T22:15:29.797Z,100.00
2023-03-29T22:17:59.228Z,99.71
2023-03-29T22:20:26.745Z,99.65
2023-03-29T22:22:54.067Z,99.04
2023-03-29T22:25:21.631Z,98.59
2023-03-29T22:27:49.339Z,99.14
2023-03-29T22:30:16.789Z,98.84
2023-03-29T22:32:43.792Z,97.90
2023-03-29T22:35:11.061Z,97.21
2023-03-29T22:37:42.068Z,97.24
2023-03-29T22:40:10.785Z,97.24
2023-03-29T22:42:37.662Z,96.88
2023-03-29T22:45:05.561Z,96.37
2023-03-29T22:47:32.732Z,96.97
2023-03-29T22:49:59.676Z,97.00
2023-03-29T22:52:26.637Z,96.10
2023-03-29T22:54:53.674Z,95.73
2023-03-29T22:57:21.000Z,95.67
2023-03-29T22:59:48.188Z,95.78
2023-03-29T23:02:15.269Z,95.71
2023-03-29T23:04:42.618Z,95.61
2023-03-29T23:07:09.585Z,96.09
2023-03-29T23:09:37.054Z,96.21
2023-03-29T23:12:04.126Z,95.98
2023-03-29T23:14:31.380Z,96.58
2023-03-29T23:16:58.839Z,97.00
2023-03-29T23:19:25.784Z,97.34
2023-03-29T23:21:53.232Z,96.84
2023-03-29T23:24:20.296Z,97.09
2023-03-29T23:26:49.366Z,96.70
2023-03-29T23:29:16.284Z,96.37
2023-03-29T23:31:44.665Z,96.58
2023-03-29T23:34:11.725Z,96.07
2023-03-29T23:36:39.755Z,95.80
2023-03-29T23:39:08.385Z,95.34
2023-03-29T23:41:35.354Z,95.27
2023-03-29T23:44:04.285Z,95.26
2023-03-29T23:46:31.674Z,95.11
2023-03-29T23:48:58.972Z,94.11
2023-03-29T23:51:28.723Z,94.17
2023-03-29T23:53:56.475Z,93.88
2023-03-29T23:56:23.624Z,93.90
2023-03-29T23:58:50.981Z,93.76
